sensor_id;sensor_type;location;lat;lon;timestamp;pressure;altitude;pressure_sealevel;temperature;humidity
18504;BME280;9381;54.244;10.074;2022-09-25T00:00:33;100791.59;;;15.20;100.00
18504;BME280;9381;54.244;10.074;2022-09-25T00:05:38;100789.28;;;15.12;100.00
18504;BME280;9381;54.244;10.074;2022-09-25T00:10:40;100789.50;;;15.10;100.00
18504;BME280;9381;54.244;10.074;2022-09-25T00:15:52;100793.31;;;15.09;100.00
18504;BME280;9381;54.244;10.074;2022-09-25T00:21:01;100795.72;;;15.22;100.00
18504;BME280;9381;54.244;10.074;2022-09-25T00:26:04;100790.41;;;15.16;100.00
18504;BME280;9381;54.244;10.074;2022-09-25T00:31:06;100786.03;;;15.15;100.00
18504;BME280;9381;54.244;10.074;2022-09-25T00:36:08;100781.16;;;15.17;100.00
18504;BME280;9381;54.244;10.074;2022-09-25T00:41:09;100784.06;;;15.10;100.00
18504;BME280;9381;54.244;10.074;2022-09-25T00:46:37;100778.25;;;15.07;100.00
18504;BME280;9381;54.244;10.074;2022-09-25T00:51:44;100772.25;;;15.05;100.00
18504;BME280;9381;54.244;10.074;2022-09-25T00:56:47;100774.97;;;15.05;100.00
18504;BME280;9381;54.244;10.074;2022-09-25T01:01:49;100784.28;;;15.09;100.00
18504;BME280;9381;54.244;10.074;2022-09-25T01:06:50;100784.28;;;15.09;100.00
18504;BME280;9381;54.244;10.074;2022-09-25T01:11:50;100781.66;;;14.97;100.00
18504;BME280;9381;54.244;10.074;2022-09-25T01:16:57;100783.28;;;14.98;100.00
18504;BME280;9381;54.244;10.074;2022-09-25T01:22:23;100778.81;;;14.92;100.00
18504;BME280;9381;54.244;10.074;2022-09-25T01:32:54;100771.56;;;14.98;100.00
18504;BME280;9381;54.244;10.074;2022-09-25T01:37:59;100776.66;;;14.94;100.00
18504;BME280;9381;54.244;10.074;2022-09-25T01:43:10;100779.03;;;14.91;100.00
18504;BME280;9381;54.244;10.074;2022-09-25T01:48:14;100784.16;;;14.87;100.00
18504;BME280;9381;54.244;10.074;2022-09-25T01:53:26;100776.44;;;14.96;100.00
18504;BME280;9381;54.244;10.074;2022-09-25T01:58:35;100784.50;;;14.91;100.00
18504;BME280;9381;54.244;10.074;2022-09-25T02:03:41;100789.00;;;14.85;100.00
18504;BME280;9381;54.244;10.074;2022-09-25T02:08:56;100771.53;;;14.81;100.00
18504;BME280;9381;54.244;10.074;2022-09-25T02:14:07;100778.63;;;14.82;100.00
18504;BME280;9381;54.244;10.074;2022-09-25T02:19:10;100781.50;;;14.76;100.00
18504;BME280;9381;54.244;10.074;2022-09-25T02:29:37;100772.97;;;14.73;100.00
18504;BME280;9381;54.244;10.074;2022-09-25T02:34:37;100765.03;;;14.71;100.00
18504;BME280;9381;54.244;10.074;2022-09-25T02:39:39;100763.75;;;14.73;100.00
18504;BME280;9381;54.244;10.074;2022-09-25T02:50:25;100769.41;;;14.72;100.00
18504;BME280;9381;54.244;10.074;2022-09-25T03:01:05;100768.78;;;14.81;100.00
18504;BME280;9381;54.244;10.074;2022-09-25T03:06:08;100756.97;;;14.76;100.00
18504;BME280;9381;54.244;10.074;2022-09-25T03:11:12;100762.91;;;14.73;100.00
18504;BME280;9381;54.244;10.074;2022-09-25T03:21:19;100765.88;;;14.72;100.00
18504;BME280;9381;54.244;10.074;2022-09-25T03:26:19;100759.09;;;14.74;100.00
18504;BME280;9381;54.244;10.074;2022-09-25T03:31:20;100757.44;;;14.73;100.00
18504;BME280;9381;54.244;10.074;2022-09-25T03:36:22;100765.03;;;14.71;100.00
18504;BME280;9381;54.244;10.074;2022-09-25T03:41:29;100757.75;;;14.60;100.00
18504;BME280;9381;54.244;10.074;2022-09-25T03:46:34;100754.16;;;14.71;100.00
18504;BME280;9381;54.244;10.074;2022-09-25T03:51:34;100752.50;;;14.70;100.00
18504;BME280;9381;54.244;10.074;2022-09-25T03:56:34;100751.19;;;14.73;100.00
18504;BME280;9381;54.244;10.074;2022-09-25T04:01:35;100751.69;;;14.70;100.00
18504;BME280;9381;54.244;10.074;2022-09-25T04:06:37;100747.06;;;14.70;100.00
18504;BME280;9381;54.244;10.074;2022-09-25T04:11:37;100750.94;;;14.74;100.00
18504;BME280;9381;54.244;10.074;2022-09-25T04:16:37;100742.19;;;14.72;100.00
18504;BME280;9381;54.244;10.074;2022-09-25T04:21:38;100748.31;;;14.79;100.00
18504;BME280;9381;54.244;10.074;2022-09-25T04:26:38;100749.41;;;14.78;100.00
18504;BME280;9381;54.244;10.074;2022-09-25T04:31:38;100740.66;;;14.76;100.00
18504;BME280;9381;54.244;10.074;2022-09-25T04:36:39;100748.81;;;14.76;100.00
18504;BME280;9381;54.244;10.074;2022-09-25T04:41:40;100742.75;;;14.74;100.00
18504;BME280;9381;54.244;10.074;2022-09-25T04:46:42;100746.56;;;14.73;100.00
18504;BME280;9381;54.244;10.074;2022-09-25T04:51:42;100739.13;;;14.68;100.00
18504;BME280;9381;54.244;10.074;2022-09-25T04:56:43;100738.31;;;14.68;100.00
18504;BME280;9381;54.244;10.074;2022-09-25T05:01:43;100742.69;;;14.69;100.00
18504;BME280;9381;54.244;10.074;2022-09-25T05:06:43;100737.81;;;14.71;100.00
18504;BME280;9381;54.244;10.074;2022-09-25T05:11:45;100737.25;;;14.69;100.00
18504;BME280;9381;54.244;10.074;2022-09-25T05:16:46;100741.25;;;14.67;100.00
18504;BME280;9381;54.244;10.074;2022-09-25T05:21:46;100741.38;;;14.72;100.00
18504;BME280;9381;54.244;10.074;2022-09-25T05:26:46;100736.66;;;14.67;100.00
18504;BME280;9381;54.244;10.074;2022-09-25T05:31:47;100740.31;;;14.73;100.00
18504;BME280;9381;54.244;10.074;2022-09-25T05:36:49;100734.53;;;14.69;100.00
18504;BME280;9381;54.244;10.074;2022-09-25T05:41:49;100730.16;;;14.68;100.00
18504;BME280;9381;54.244;10.074;2022-09-25T05:46:50;100721.59;;;14.76;100.00
18504;BME280;9381;54.244;10.074;2022-09-25T05:51:50;100723.47;;;14.75;100.00
18504;BME280;9381;54.244;10.074;2022-09-25T05:56:50;100726.53;;;14.79;100.00
18504;BME280;9381;54.244;10.074;2022-09-25T06:01:51;100724.16;;;14.82;100.00
18504;BME280;9381;54.244;10.074;2022-09-25T06:06:51;100730.41;;;14.83;100.00
18504;BME280;9381;54.244;10.074;2022-09-25T06:11:51;100721.66;;;14.81;100.00
18504;BME280;9381;54.244;10.074;2022-09-25T06:16:52;100729.94;;;14.86;100.00
18504;BME280;9381;54.244;10.074;2022-09-25T06:21:54;100729.78;;;14.92;100.00
18504;BME280;9381;54.244;10.074;2022-09-25T06:26:54;100729.63;;;14.99;100.00
18504;BME280;9381;54.244;10.074;2022-09-25T06:31:55;100728.94;;;14.92;100.00
18504;BME280;9381;54.244;10.074;2022-09-25T06:36:55;100736.88;;;14.93;100.00
18504;BME280;9381;54.244;10.074;2022-09-25T06:41:56;100738.34;;;14.84;100.00
18504;BME280;9381;54.244;10.074;2022-09-25T06:46:56;100740.91;;;14.91;100.00
18504;BME280;9381;54.244;10.074;2022-09-25T06:51:59;100736.06;;;14.93;100.00
18504;BME280;9381;54.244;10.074;2022-09-25T06:56:59;100734.50;;;14.97;100.00
18504;BME280;9381;54.244;10.074;2022-09-25T07:01:59;100740.63;;;15.04;100.00
18504;BME280;9381;54.244;10.074;2022-09-25T07:07:20;100743.34;;;15.04;100.00
18504;BME280;9381;54.244;10.074;2022-09-25T07:12:21;100743.53;;;15.14;100.00
18504;BME280;9381;54.244;10.074;2022-09-25T07:17:21;100738.50;;;15.22;100.00
18504;BME280;9381;54.244;10.074;2022-09-25T07:22:22;100741.09;;;15.29;100.00
18504;BME280;9381;54.244;10.074;2022-09-25T07:27:22;100751.75;;;15.30;100.00
18504;BME280;9381;54.244;10.074;2022-09-25T07:32:23;100745.44;;;15.30;100.00
18504;BME280;9381;54.244;10.074;2022-09-25T07:37:23;100749.88;;;15.31;100.00
18504;BME280;9381;54.244;10.074;2022-09-25T07:42:24;100757.44;;;15.29;100.00
18504;BME280;9381;54.244;10.074;2022-09-25T07:47:24;100760.16;;;15.29;100.00
18504;BME280;9381;54.244;10.074;2022-09-25T07:52:25;100762.78;;;15.24;100.00
18504;BME280;9381;54.244;10.074;2022-09-25T07:57:25;100760.75;;;15.31;100.00
18504;BME280;9381;54.244;10.074;2022-09-25T08:02:27;100754.81;;;15.34;100.00
18504;BME280;9381;54.244;10.074;2022-09-25T08:07:27;100749.16;;;15.24;100.00
18504;BME280;9381;54.244;10.074;2022-09-25T08:12:28;100755.69;;;15.23;100.00
18504;BME280;9381;54.244;10.074;2022-09-25T08:17:29;100756.13;;;15.31;100.00
18504;BME280;9381;54.244;10.074;2022-09-25T08:22:30;100749.50;;;15.27;100.00
18504;BME280;9381;54.244;10.074;2022-09-25T08:27:31;100740.59;;;15.32;100.00
18504;BME280;9381;54.244;10.074;2022-09-25T08:32:35;100744.41;;;15.31;100.00
18504;BME280;9381;54.244;10.074;2022-09-25T08:37:39;100743.81;;;15.29;100.00
18504;BME280;9381;54.244;10.074;2022-09-25T08:42:41;100747.72;;;15.33;100.00
18504;BME280;9381;54.244;10.074;2022-09-25T08:47:42;100747.72;;;15.33;100.00
18504;BME280;9381;54.244;10.074;2022-09-25T08:53:07;100741.28;;;15.39;100.00
18504;BME280;9381;54.244;10.074;2022-09-25T08:58:13;100753.09;;;15.44;100.00
18504;BME280;9381;54.244;10.074;2022-09-25T09:03:16;100756.16;;;15.48;100.00
18504;BME280;9381;54.244;10.074;2022-09-25T09:08:20;100750.03;;;15.41;100.00
18504;BME280;9381;54.244;10.074;2022-09-25T09:13:40;100745.25;;;15.48;100.00
18504;BME280;9381;54.244;10.074;2022-09-25T09:18:43;100741.09;;;15.62;100.00
18504;BME280;9381;54.244;10.074;2022-09-25T09:34:39;100750.75;;;15.69;100.00
18504;BME280;9381;54.244;10.074;2022-09-25T09:45:14;100749.00;;;15.80;100.00
18504;BME280;9381;54.244;10.074;2022-09-25T09:50:39;100746.38;;;15.85;100.00
18504;BME280;9381;54.244;10.074;2022-09-25T09:55:44;100738.75;;;15.87;100.00
18504;BME280;9381;54.244;10.074;2022-09-25T10:00:47;100740.25;;;15.78;100.00
18504;BME280;9381;54.244;10.074;2022-09-25T10:05:53;100731.84;;;15.79;100.00
18504;BME280;9381;54.244;10.074;2022-09-25T10:10:54;100723.16;;;15.82;100.00
18504;BME280;9381;54.244;10.074;2022-09-25T10:16:01;100734.44;;;15.91;100.00
18504;BME280;9381;54.244;10.074;2022-09-25T10:21:09;100730.56;;;15.87;100.00
18504;BME280;9381;54.244;10.074;2022-09-25T10:26:29;100732.78;;;15.90;100.00
18504;BME280;9381;54.244;10.074;2022-09-25T10:31:34;100722.41;;;15.87;100.00
18504;BME280;9381;54.244;10.074;2022-09-25T10:36:40;100719.16;;;15.90;100.00
18504;BME280;9381;54.244;10.074;2022-09-25T10:41:41;100713.22;;;15.93;100.00
18504;BME280;9381;54.244;10.074;2022-09-25T10:46:42;100719.81;;;15.97;100.00
18504;BME280;9381;54.244;10.074;2022-09-25T10:52:05;100718.47;;;15.99;100.00
18504;BME280;9381;54.244;10.074;2022-09-25T11:02:38;100719.84;;;16.02;100.00
18504;BME280;9381;54.244;10.074;2022-09-25T11:07:48;100709.59;;;16.09;100.00
18504;BME280;9381;54.244;10.074;2022-09-25T11:12:51;100709.72;;;16.19;100.00
18504;BME280;9381;54.244;10.074;2022-09-25T11:17:55;100706.31;;;16.28;100.00
18504;BME280;9381;54.244;10.074;2022-09-25T11:23:20;100696.44;;;16.44;100.00
18504;BME280;9381;54.244;10.074;2022-09-25T11:28:36;100695.63;;;16.43;100.00
18504;BME280;9381;54.244;10.074;2022-09-25T11:33:49;100688.81;;;16.46;100.00
18504;BME280;9381;54.244;10.074;2022-09-25T11:39:01;100692.97;;;16.32;99.96
18504;BME280;9381;54.244;10.074;2022-09-25T11:44:31;100693.38;;;16.40;99.66
18504;BME280;9381;54.244;10.074;2022-09-25T11:49:36;100686.84;;;16.41;100.00
18504;BME280;9381;54.244;10.074;2022-09-25T12:16:18;100676.28;;;16.71;99.69
18504;BME280;9381;54.244;10.074;2022-09-25T12:21:27;100666.69;;;16.69;99.13
18504;BME280;9381;54.244;10.074;2022-09-25T12:31:54;100653.03;;;16.69;95.07
18504;BME280;9381;54.244;10.074;2022-09-25T12:37:12;100650.91;;;16.76;94.41
18504;BME280;9381;54.244;10.074;2022-09-25T12:42:35;100649.44;;;16.68;93.07
18504;BME280;9381;54.244;10.074;2022-09-25T12:53:12;100637.72;;;16.68;94.74
18504;BME280;9381;54.244;10.074;2022-09-25T12:58:55;100636.09;;;16.72;95.32
18504;BME280;9381;54.244;10.074;2022-09-25T13:09:47;100621.34;;;16.68;93.91
18504;BME280;9381;54.244;10.074;2022-09-25T13:15:10;100616.06;;;16.88;95.47
18504;BME280;9381;54.244;10.074;2022-09-25T13:25:28;100618.22;;;16.86;93.85
18504;BME280;9381;54.244;10.074;2022-09-25T13:30:30;100617.59;;;16.79;91.71
18504;BME280;9381;54.244;10.074;2022-09-25T13:35:31;100613.78;;;16.80;92.74
18504;BME280;9381;54.244;10.074;2022-09-25T13:40:32;100614.03;;;16.78;93.13
18504;BME280;9381;54.244;10.074;2022-09-25T13:45:41;100597.47;;;16.90;94.52
18504;BME280;9381;54.244;10.074;2022-09-25T13:50:44;100590.38;;;16.89;94.73
18504;BME280;9381;54.244;10.074;2022-09-25T14:00:57;100583.19;;;16.78;92.57
18504;BME280;9381;54.244;10.074;2022-09-25T14:05:59;100580.88;;;16.96;93.60
18504;BME280;9381;54.244;10.074;2022-09-25T14:11:02;100582.81;;;17.01;92.62
18504;BME280;9381;54.244;10.074;2022-09-25T14:16:08;100581.19;;;16.68;92.34
18504;BME280;9381;54.244;10.074;2022-09-25T14:21:11;100581.25;;;16.73;92.69
18504;BME280;9381;54.244;10.074;2022-09-25T14:26:20;100569.41;;;16.36;96.33
18504;BME280;9381;54.244;10.074;2022-09-25T14:41:56;100546.09;;;16.29;98.63
18504;BME280;9381;54.244;10.074;2022-09-25T14:47:02;100538.41;;;16.21;97.16
18504;BME280;9381;54.244;10.074;2022-09-25T14:52:13;100538.22;;;16.06;95.38
18504;BME280;9381;54.244;10.074;2022-09-25T14:57:16;100533.41;;;16.13;95.39
18504;BME280;9381;54.244;10.074;2022-09-25T15:07:23;100523.28;;;16.13;96.33
18504;BME280;9381;54.244;10.074;2022-09-25T15:12:31;100521.78;;;16.01;97.37
18504;BME280;9381;54.244;10.074;2022-09-25T15:17:47;100516.84;;;15.98;97.02
18504;BME280;9381;54.244;10.074;2022-09-25T15:23:13;100525.50;;;15.90;97.48
18504;BME280;9381;54.244;10.074;2022-09-25T15:28:23;100505.00;;;15.87;98.13
18504;BME280;9381;54.244;10.074;2022-09-25T15:33:30;100504.94;;;16.04;98.41
18504;BME280;9381;54.244;10.074;2022-09-25T15:38:33;100504.81;;;16.20;98.36
18504;BME280;9381;54.244;10.074;2022-09-25T15:43:34;100504.94;;;16.04;98.32
18504;BME280;9381;54.244;10.074;2022-09-25T15:48:39;100498.38;;;16.05;99.54
18504;BME280;9381;54.244;10.074;2022-09-25T15:53:48;100498.63;;;15.77;98.70
18504;BME280;9381;54.244;10.074;2022-09-25T15:58:53;100489.06;;;15.74;96.99
18504;BME280;9381;54.244;10.074;2022-09-25T16:03:54;100491.34;;;15.61;98.58
18504;BME280;9381;54.244;10.074;2022-09-25T16:09:37;100495.53;;;15.47;98.85
18504;BME280;9381;54.244;10.074;2022-09-25T16:14:37;100497.78;;;15.50;98.03
18504;BME280;9381;54.244;10.074;2022-09-25T16:19:39;100501.13;;;15.57;97.85
18504;BME280;9381;54.244;10.074;2022-09-25T16:24:40;100487.22;;;15.37;93.94
18504;BME280;9381;54.244;10.074;2022-09-25T16:29:42;100486.44;;;15.20;92.04
18504;BME280;9381;54.244;10.074;2022-09-25T16:34:56;100494.16;;;15.28;89.55
18504;BME280;9381;54.244;10.074;2022-09-25T16:40:22;100491.88;;;15.36;89.07
18504;BME280;9381;54.244;10.074;2022-09-25T16:50:31;100484.34;;;15.27;87.30
18504;BME280;9381;54.244;10.074;2022-09-25T16:55:44;100485.41;;;15.26;87.26
18504;BME280;9381;54.244;10.074;2022-09-25T17:00:45;100472.56;;;15.21;86.73
18504;BME280;9381;54.244;10.074;2022-09-25T17:05:45;100482.19;;;15.07;87.08
18504;BME280;9381;54.244;10.074;2022-09-25T17:10:48;100476.34;;;14.99;87.25
18504;BME280;9381;54.244;10.074;2022-09-25T17:15:50;100477.94;;;14.95;87.65
18504;BME280;9381;54.244;10.074;2022-09-25T17:20:51;100477.69;;;14.80;87.71
18504;BME280;9381;54.244;10.074;2022-09-25T17:31:03;100484.41;;;14.56;90.06
18504;BME280;9381;54.244;10.074;2022-09-25T17:36:05;100475.50;;;14.44;90.83
18504;BME280;9381;54.244;10.074;2022-09-25T17:41:17;100472.81;;;14.16;92.31
18504;BME280;9381;54.244;10.074;2022-09-25T17:46:18;100471.03;;;14.22;91.96
18504;BME280;9381;54.244;10.074;2022-09-25T17:51:21;100466.78;;;14.14;92.24
18504;BME280;9381;54.244;10.074;2022-09-25T17:56:23;100465.25;;;14.18;92.42
18504;BME280;9381;54.244;10.074;2022-09-25T18:01:28;100470.56;;;13.97;92.63
18504;BME280;9381;54.244;10.074;2022-09-25T18:06:29;100466.06;;;14.02;92.34
18504;BME280;9381;54.244;10.074;2022-09-25T18:11:29;100464.47;;;13.90;92.49
18504;BME280;9381;54.244;10.074;2022-09-25T18:16:31;100457.44;;;13.77;92.34
18504;BME280;9381;54.244;10.074;2022-09-25T18:21:31;100461.94;;;13.44;93.11
18504;BME280;9381;54.244;10.074;2022-09-25T18:26:52;100460.59;;;13.46;93.21
18504;BME280;9381;54.244;10.074;2022-09-25T18:31:53;100451.81;;;13.28;94.15
18504;BME280;9381;54.244;10.074;2022-09-25T18:36:54;100457.13;;;13.23;94.13
18504;BME280;9381;54.244;10.074;2022-09-25T18:41:54;100453.19;;;13.02;94.91
18504;BME280;9381;54.244;10.074;2022-09-25T18:46:55;100441.47;;;12.90;95.06
18504;BME280;9381;54.244;10.074;2022-09-25T18:51:55;100429.31;;;12.93;95.30
18504;BME280;9381;54.244;10.074;2022-09-25T18:56:56;100429.56;;;12.91;95.29
18504;BME280;9381;54.244;10.074;2022-09-25T19:01:57;100419.31;;;12.70;96.93
18504;BME280;9381;54.244;10.074;2022-09-25T19:06:58;100414.25;;;12.62;97.50
18504;BME280;9381;54.244;10.074;2022-09-25T19:11:59;100413.09;;;12.58;97.53
18504;BME280;9381;54.244;10.074;2022-09-25T19:17:00;100396.13;;;12.28;99.81
18504;BME280;9381;54.244;10.074;2022-09-25T19:22:01;100405.06;;;12.29;99.64
18504;BME280;9381;54.244;10.074;2022-09-25T19:27:03;100399.88;;;12.27;99.66
18504;BME280;9381;54.244;10.074;2022-09-25T19:32:06;100409.53;;;12.00;100.00
18504;BME280;9381;54.244;10.074;2022-09-25T19:37:07;100410.72;;;12.04;100.00
18504;BME280;9381;54.244;10.074;2022-09-25T19:42:08;100407.25;;;11.86;100.00
18504;BME280;9381;54.244;10.074;2022-09-25T19:47:09;100407.59;;;11.89;100.00
18504;BME280;9381;54.244;10.074;2022-09-25T19:52:10;100407.50;;;11.84;100.00
18504;BME280;9381;54.244;10.074;2022-09-25T19:57:10;100393.44;;;11.65;100.00
18504;BME280;9381;54.244;10.074;2022-09-25T20:02:11;100401.91;;;11.68;100.00
18504;BME280;9381;54.244;10.074;2022-09-25T20:07:15;100392.69;;;11.58;100.00
18504;BME280;9381;54.244;10.074;2022-09-25T20:12:16;100390.72;;;11.35;100.00
18504;BME280;9381;54.244;10.074;2022-09-25T20:17:16;100383.50;;;11.59;100.00
18504;BME280;9381;54.244;10.074;2022-09-25T20:22:16;100377.06;;;11.42;100.00
18504;BME280;9381;54.244;10.074;2022-09-25T20:27:17;100374.09;;;11.32;100.00
18504;BME280;9381;54.244;10.074;2022-09-25T20:32:18;100383.59;;;11.23;100.00
18504;BME280;9381;54.244;10.074;2022-09-25T20:37:18;100376.25;;;11.12;100.00
18504;BME280;9381;54.244;10.074;2022-09-25T20:42:18;100373.25;;;11.02;100.00
18504;BME280;9381;54.244;10.074;2022-09-25T20:47:19;100377.44;;;10.98;100.00
18504;BME280;9381;54.244;10.074;2022-09-25T20:52:19;100368.16;;;10.94;100.00
18504;BME280;9381;54.244;10.074;2022-09-25T20:57:19;100367.78;;;10.90;99.94
18504;BME280;9381;54.244;10.074;2022-09-25T21:02:20;100361.41;;;10.85;99.35
18504;BME280;9381;54.244;10.074;2022-09-25T21:07:20;100369.66;;;10.72;99.89
18504;BME280;9381;54.244;10.074;2022-09-25T21:12:21;100352.75;;;10.76;100.00
18504;BME280;9381;54.244;10.074;2022-09-25T21:17:21;100358.91;;;10.65;100.00
18504;BME280;9381;54.244;10.074;2022-09-25T21:22:21;100343.16;;;10.62;100.00
18504;BME280;9381;54.244;10.074;2022-09-25T21:27:22;100338.81;;;10.61;100.00
18504;BME280;9381;54.244;10.074;2022-09-25T21:32:22;100335.25;;;10.61;100.00
18504;BME280;9381;54.244;10.074;2022-09-25T21:37:23;100338.53;;;10.81;100.00
18504;BME280;9381;54.244;10.074;2022-09-25T21:42:23;100321.59;;;10.74;100.00
18504;BME280;9381;54.244;10.074;2022-09-25T21:47:24;100320.63;;;10.68;100.00
18504;BME280;9381;54.244;10.074;2022-09-25T21:52:25;100311.88;;;10.66;100.00
18504;BME280;9381;54.244;10.074;2022-09-25T21:57:25;100304.31;;;10.75;100.00
18504;BME280;9381;54.244;10.074;2022-09-25T22:02:28;100297.25;;;10.74;100.00
18504;BME280;9381;54.244;10.074;2022-09-25T22:07:29;100287.91;;;10.70;100.00
18504;BME280;9381;54.244;10.074;2022-09-25T22:12:31;100286.34;;;10.80;100.00
18504;BME280;9381;54.244;10.074;2022-09-25T22:17:31;100279.28;;;10.79;100.00
18504;BME280;9381;54.244;10.074;2022-09-25T22:22:31;100266.88;;;10.72;100.00
18504;BME280;9381;54.244;10.074;2022-09-25T22:27:32;100265.59;;;10.74;100.00
18504;BME280;9381;54.244;10.074;2022-09-25T22:32:32;100248.94;;;10.77;100.00
18504;BME280;9381;54.244;10.074;2022-09-25T22:37:32;100249.28;;;10.81;100.00
18504;BME280;9381;54.244;10.074;2022-09-25T22:42:33;100244.13;;;10.91;100.00
18504;BME280;9381;54.244;10.074;2022-09-25T22:47:33;100233.59;;;11.01;100.00
18504;BME280;9381;54.244;10.074;2022-09-25T22:52:34;100228.44;;;11.11;100.00
18504;BME280;9381;54.244;10.074;2022-09-25T22:57:34;100213.84;;;11.12;100.00
18504;BME280;9381;54.244;10.074;2022-09-25T23:02:38;100210.44;;;11.16;100.00
18504;BME280;9381;54.244;10.074;2022-09-25T23:07:38;100200.56;;;11.22;100.00
18504;BME280;9381;54.244;10.074;2022-09-25T23:12:38;100200.94;;;11.25;100.00
18504;BME280;9381;54.244;10.074;2022-09-25T23:17:39;100196.56;;;11.13;100.00
18504;BME280;9381;54.244;10.074;2022-09-25T23:22:39;100184.34;;;11.22;100.00
18504;BME280;9381;54.244;10.074;2022-09-25T23:27:39;100183.25;;;11.23;100.00
18504;BME280;9381;54.244;10.074;2022-09-25T23:32:40;100172.91;;;11.20;100.00
18504;BME280;9381;54.244;10.074;2022-09-25T23:37:40;100165.38;;;11.22;100.00
18504;BME280;9381;54.244;10.074;2022-09-25T23:42:40;100154.56;;;11.22;100.00
18504;BME280;9381;54.244;10.074;2022-09-25T23:47:42;100144.88;;;11.26;100.00
18504;BME280;9381;54.244;10.074;2022-09-25T23:52:42;100120.53;;;11.26;100.00
18504;BME280;9381;54.244;10.074;2022-09-25T23:57:43;100110.63;;;11.31;100.00
